Time;durP1;ratioP1;P1;durP2;ratioP2;P2;SDS_P1;SDS_P2;PMS_P1;PMS_P2;Temp;Humidity;BMP_temperature;BMP_pressure;BME280_temperature;BME280_humidity;BME280_pressure;Samples;Min_cycle;Max_cycle;Signal;HPM_P1;HPM_P2
2023/05/06 00:01:33;;;;;;;11.57;7.70;;;;;;;11.80;98.41;64186.94;5050699;28;20686;-55
2023/05/06 00:03:58;;;;;;;11.07;7.53;;;;;;;11.65;99.00;64168.53;5050619;28;20639;-54
2023/05/06 00:06:23;;;;;;;10.93;7.17;;;;;;;11.61;99.35;64168.63;5050890;28;20184;-58
2023/05/06 00:08:49;;;;;;;9.77;7.10;;;;;;;11.62;99.36;64170.28;5050665;28;20662;-56
2023/05/06 00:11:14;;;;;;;9.27;7.47;;;;;;;11.61;99.96;64163.59;5032679;28;20548;-55
2023/05/06 00:13:40;;;;;;;11.93;7.73;;;;;;;11.58;100.00;64163.38;5050412;28;20209;-55
2023/05/06 00:16:06;;;;;;;9.67;7.67;;;;;;;11.57;99.49;64162.25;5050603;28;20182;-57
2023/05/06 00:18:31;;;;;;;12.43;8.10;;;;;;;11.53;99.99;64162.38;5050600;28;20568;-55
2023/05/06 00:20:57;;;;;;;9.70;7.50;;;;;;;11.47;100.00;64153.81;5050493;28;20223;-55
2023/05/06 00:23:22;;;;;;;9.73;7.40;;;;;;;11.72;99.24;64181.25;5062497;22;20240;-56
2023/05/06 00:25:48;;;;;;;9.10;7.17;;;;;;;11.66;99.50;64174.13;5070431;28;20200;-54
2023/05/06 00:28:13;;;;;;;11.37;7.47;;;;;;;11.44;100.00;64150.56;5065394;28;20717;-58
2023/05/06 00:30:38;;;;;;;10.53;7.87;;;;;;;11.31;100.00;64133.78;5050479;28;20583;-58
2023/05/06 00:33:04;;;;;;;9.83;8.13;;;;;;;11.36;100.00;64139.25;5050343;28;20304;-58
2023/05/06 00:35:30;;;;;;;9.17;7.03;;;;;;;11.56;100.00;64158.09;5050439;28;20261;-61
2023/05/06 00:37:57;;;;;;;11.23;8.30;;;;;;;11.41;100.00;64144.72;5050139;28;20658;-58
2023/05/06 00:40:23;;;;;;;12.17;8.93;;;;;;;11.35;100.00;64140.69;5050254;28;20189;-58
2023/05/06 00:42:48;;;;;;;10.33;8.00;;;;;;;11.28;99.24;64127.97;5050143;28;20186;-56
2023/05/06 00:45:14;;;;;;;10.33;8.23;;;;;;;11.31;100.00;64133.78;5050047;28;20197;-55
2023/05/06 00:47:40;;;;;;;11.30;7.40;;;;;;;11.34;100.00;64139.59;5049989;28;20671;-54
2023/05/06 00:50:06;;;;;;;11.73;7.23;;;;;;;11.25;100.00;64129.72;5049990;28;20709;-55
2023/05/06 00:52:32;;;;;;;9.80;7.00;;;;;;;11.25;100.00;64129.72;5049903;28;20184;-58
2023/05/06 00:54:57;;;;;;;11.13;7.60;;;;;;;11.25;100.00;64129.19;5049684;28;20206;-58
2023/05/06 00:57:23;;;;;;;9.07;6.57;;;;;;;11.47;99.38;64153.28;5050115;28;20174;-57
2023/05/06 00:59:49;;;;;;;8.40;6.63;;;;;;;11.34;99.96;64139.59;5050123;28;20699;-58
2023/05/06 01:02:15;;;;;;;10.00;7.37;;;;;;;11.23;100.00;64125.00;5052424;28;20192;-58
2023/05/06 01:04:41;;;;;;;9.53;7.07;;;;;;;11.18;100.00;64119.53;5053312;28;20213;-58
2023/05/06 01:07:27;;;;;;;10.87;7.57;;;;;;;11.20;100.00;64124.25;5035601;28;20231;-58
2023/05/06 01:10:18;;;;;;;11.93;7.03;;;;;;;11.16;100.00;64119.88;5053228;28;20229;-59
2023/05/06 01:12:56;;;;;;;11.63;6.90;;;;;;;11.10;100.00;64110.78;5053088;28;20197;-55
2023/05/06 01:15:33;;;;;;;8.93;6.87;;;;;;;10.84;100.00;64082.31;5035362;28;20234;-55
2023/05/06 01:18:03;;;;;;;9.93;7.10;;;;;;;10.74;100.00;64073.88;5053069;28;20224;-55
2023/05/06 01:20:30;;;;;;;11.33;8.00;;;;;;;10.79;100.00;64079.34;5053171;28;20200;-56
2023/05/06 01:22:56;;;;;;;10.27;7.77;;;;;;;10.77;100.00;64077.72;5053099;28;20186;-55
2023/05/06 01:25:22;;;;;;;11.13;7.80;;;;;;;10.90;100.00;64091.97;5053074;28;20193;-55
2023/05/06 01:27:48;;;;;;;9.03;7.67;;;;;;;10.97;100.00;64097.09;5052756;28;20717;-55
2023/05/06 01:30:16;;;;;;;9.97;7.57;;;;;;;11.02;100.00;64101.47;5052875;28;20192;-55
2023/05/06 01:33:10;;;;;;;10.20;7.30;;;;;;;11.16;100.00;64116.81;5052842;28;20189;-55
2023/05/06 01:36:09;;;;;;;10.17;7.73;;;;;;;11.05;100.00;64107.81;5016757;28;20193;-57
2023/05/06 01:38:34;;;;;;;10.13;7.93;;;;;;;11.12;100.00;64112.97;5053186;28;20272;-58
2023/05/06 01:41:01;;;;;;;10.30;7.67;;;;;;;10.98;100.00;64100.16;5053096;28;20213;-58
2023/05/06 01:43:32;;;;;;;9.60;7.07;;;;;;;10.94;100.00;64095.78;5034911;28;20210;-57
2023/05/06 01:46:00;;;;;;;9.13;7.20;;;;;;;10.96;100.00;64095.47;5052880;28;20193;-58
2023/05/06 01:48:29;;;;;;;10.60;8.23;;;;;;;10.98;100.00;64097.66;5052510;28;20248;-58
2023/05/06 01:50:54;;;;;;;11.57;8.00;;;;;;;11.01;100.00;64102.91;5034731;28;20194;-58
2023/05/06 01:53:20;;;;;;;11.80;8.50;;;;;;;10.91;100.00;64092.50;5052653;28;20739;-62
2023/05/06 01:55:47;;;;;;;9.40;7.47;;;;;;;10.85;100.00;64083.94;5052669;28;20197;-60
2023/05/06 01:58:13;;;;;;;11.17;7.90;;;;;;;10.89;100.00;64090.31;5052561;28;20254;-58
2023/05/06 02:00:38;;;;;;;10.30;7.40;;;;;;;10.85;100.00;64086.47;5052492;28;20275;-58
2023/05/06 02:03:04;;;;;;;11.33;7.00;;;;;;;11.04;100.00;64106.19;5052237;28;20228;-58
2023/05/06 02:05:29;;;;;;;11.60;8.23;;;;;;;10.92;100.00;64091.06;5052363;28;20620;-58
2023/05/06 02:07:55;;;;;;;10.23;7.93;;;;;;;10.97;100.00;64094.03;5034376;28;20197;-55
2023/05/06 02:10:20;;;;;;;10.13;7.90;;;;;;;10.96;100.00;64097.97;5052411;28;20208;-56
2023/05/06 02:12:46;;;;;;;15.10;8.37;;;;;;;10.71;100.00;64065.56;5051245;28;20272;-56
2023/05/06 02:15:12;;;;;;;11.53;8.07;;;;;;;10.59;100.00;64057.47;5034390;28;20190;-57
2023/05/06 02:17:37;;;;;;;10.90;7.97;;;;;;;10.57;100.00;64053.31;5052492;28;20243;-56
2023/05/06 02:20:03;;;;;;;15.37;7.97;;;;;;;10.59;100.00;64057.47;5052175;28;20311;-55
2023/05/06 02:22:29;;;;;;;8.90;7.07;;;;;;;10.80;100.00;64081.00;5052198;28;20638;-55
2023/05/06 02:24:54;;;;;;;11.17;8.93;;;;;;;10.83;100.00;64083.72;5052526;28;20634;-56
2023/05/06 02:27:19;;;;;;;12.87;8.10;;;;;;;10.56;100.00;64056.72;5052166;28;20193;-55
2023/05/06 02:29:45;;;;;;;13.17;8.03;;;;;;;10.44;100.00;64041.59;5052275;28;20221;-55
2023/05/06 02:32:10;;;;;;;12.77;7.90;;;;;;;10.49;100.00;64046.50;5052293;28;20204;-55
2023/05/06 02:34:36;;;;;;;13.27;8.67;;;;;;;10.55;100.00;64053.63;5052398;28;20691;-55
2023/05/06 02:37:02;;;;;;;9.57;7.53;;;;;;;10.61;100.00;64059.66;5052200;28;20197;-55
2023/05/06 02:39:27;;;;;;;12.50;8.07;;;;;;;10.45;100.00;64042.13;5051911;28;20260;-55
2023/05/06 02:41:53;;;;;;;15.63;8.23;;;;;;;10.45;100.00;64037.66;5051842;28;20205;-56
2023/05/06 02:44:18;;;;;;;11.63;8.13;;;;;;;10.41;100.00;64038.31;5051787;28;20212;-55
2023/05/06 02:46:43;;;;;;;13.87;9.23;;;;;;;10.52;100.00;64049.81;5051821;28;20704;-54
2023/05/06 02:49:09;;;;;;;10.60;7.80;;;;;;;10.41;100.00;64037.75;5052019;28;20232;-55
2023/05/06 02:51:35;;;;;;;11.63;8.20;;;;;;;10.61;100.00;64054.59;5051781;28;20225;-55
2023/05/06 02:54:00;;;;;;;10.80;8.20;;;;;;;10.47;100.00;64042.34;5051952;28;20296;-58
2023/05/06 02:56:26;;;;;;;13.07;8.03;;;;;;;10.44;100.00;64041.59;5051690;28;20738;-57
2023/05/06 02:58:52;;;;;;;9.87;7.33;;;;;;;10.34;100.00;64030.66;5051830;28;20235;-57
2023/05/06 03:01:17;;;;;;;11.90;7.93;;;;;;;10.49;100.00;64049.59;5051628;28;20186;-59
2023/05/06 03:03:43;;;;;;;11.83;7.77;;;;;;;10.52;100.00;64049.81;5051467;28;20214;-55
2023/05/06 03:06:08;;;;;;;9.50;7.07;;;;;;;10.52;100.00;64052.88;5033660;28;20212;-55
2023/05/06 03:08:34;;;;;;;14.97;7.93;;;;;;;10.49;100.00;64046.50;5051794;28;20682;-59
2023/05/06 03:10:59;;;;;;;10.87;7.80;;;;;;;10.57;100.00;64052.75;5033574;28;20333;-58
2023/05/06 03:13:25;;;;;;;11.33;8.00;;;;;;;10.83;100.00;64081.75;5033592;28;20225;-58
2023/05/06 03:15:52;;;;;;;10.93;7.40;;;;;;;10.53;100.00;64048.38;5051410;28;20209;-57
2023/05/06 03:18:18;;;;;;;11.53;7.40;;;;;;;10.47;100.00;64039.28;5051423;28;20274;-58
2023/05/06 03:20:43;;;;;;;11.77;7.43;;;;;;;10.46;100.00;64043.25;5051372;28;20193;-57
2023/05/06 03:23:09;;;;;;;10.10;7.60;;;;;;;10.52;100.00;64050.34;5051298;28;20542;-58
2023/05/06 03:25:35;;;;;;;10.60;7.33;;;;;;;10.71;100.00;64070.59;5051037;28;20363;-58
2023/05/06 03:28:00;;;;;;;11.97;7.50;;;;;;;10.56;100.00;64054.75;5050968;28;20713;-57
2023/05/06 03:30:25;;;;;;;11.37;7.93;;;;;;;10.51;100.00;64046.19;5051524;28;20222;-58
2023/05/06 03:32:51;;;;;;;8.43;7.00;;;;;;;10.64;100.00;64060.97;5051324;28;20185;-59
2023/05/06 03:35:17;;;;;;;11.67;8.20;;;;;;;10.73;100.00;64070.81;5051265;28;20185;-56
2023/05/06 03:37:42;;;;;;;11.03;8.10;;;;;;;10.47;100.00;64044.88;5033267;28;20193;-55
2023/05/06 03:40:08;;;;;;;13.77;7.97;;;;;;;10.29;100.00;64022.66;5050993;28;20181;-55
2023/05/06 03:42:34;;;;;;;12.13;8.23;;;;;;;10.27;100.00;64022.44;5051160;28;20193;-55
2023/05/06 03:44:59;;;;;;;11.17;8.03;;;;;;;10.30;100.00;64023.75;5049780;28;20290;-58
2023/05/06 03:47:24;;;;;;;13.13;8.70;;;;;;;10.35;100.00;64026.16;5050950;28;20186;-58
2023/05/06 03:49:50;;;;;;;10.47;7.30;;;;;;;10.50;100.00;64048.16;5050790;28;20306;-58
2023/05/06 03:52:16;;;;;;;11.07;7.47;;;;;;;10.74;100.00;64073.88;5050891;28;20192;-58
2023/05/06 03:54:41;;;;;;;15.07;7.67;;;;;;;10.94;100.00;64096.34;5051327;28;20205;-56
2023/05/06 03:57:06;;;;;;;13.03;8.07;;;;;;;10.88;100.00;64086.69;5050809;28;20171;-55
2023/05/06 03:59:32;;;;;;;11.40;7.90;;;;;;;10.79;100.00;64079.91;5050596;28;20214;-55
2023/05/06 04:01:57;;;;;;;13.80;8.43;;;;;;;10.71;100.00;64071.16;5050869;28;20214;-56
2023/05/06 04:04:24;;;;;;;13.53;8.43;;;;;;;10.80;100.00;64078.50;5050905;28;20293;-55
2023/05/06 04:06:49;;;;;;;16.07;7.97;;;;;;;10.77;100.00;64079.69;5050721;28;20277;-55
2023/05/06 04:09:14;;;;;;;13.77;8.83;;;;;;;10.86;100.00;64087.03;5050516;28;20316;-56
2023/05/06 04:11:40;;;;;;;11.53;8.30;;;;;;;10.97;100.00;64099.06;5050527;28;20709;-55
2023/05/06 04:14:05;;;;;;;17.63;8.63;;;;;;;11.02;100.00;64106.50;5050527;28;20213;-56
2023/05/06 04:16:31;;;;;;;12.17;7.90;;;;;;;11.08;100.00;64108.03;5050750;28;20193;-58
2023/05/06 04:18:56;;;;;;;12.20;8.23;;;;;;;11.02;100.00;64102.03;5050774;28;20243;-59
2023/05/06 04:21:21;;;;;;;11.63;7.83;;;;;;;11.03;100.00;64105.09;5050499;28;20652;-59
2023/05/06 04:23:47;;;;;;;11.93;8.27;;;;;;;11.29;100.00;64131.06;5050631;28;20221;-58
2023/05/06 04:26:13;;;;;;;11.27;7.70;;;;;;;11.27;100.00;64128.88;5032952;28;20209;-58
2023/05/06 04:28:38;;;;;;;12.80;8.77;;;;;;;11.11;100.00;64111.88;5050719;28;20213;-58
2023/05/06 04:31:04;;;;;;;9.07;6.83;;;;;;;11.13;100.00;64116.59;5050552;28;20687;-58
2023/05/06 04:33:30;;;;;;;8.53;6.63;;;;;;;11.21;100.00;64125.34;5050310;28;20217;-58
2023/05/06 04:35:56;;;;;;;9.73;7.47;;;;;;;11.18;100.00;64122.06;5049321;28;20215;-58
2023/05/06 04:38:24;;;;;;;12.90;8.60;;;;;;;11.15;100.00;64118.78;5050228;28;20312;-55
2023/05/06 04:40:50;;;;;;;14.80;8.37;;;;;;;11.30;100.00;64135.22;5032480;28;20201;-58
2023/05/06 04:43:15;;;;;;;16.30;8.57;;;;;;;11.35;100.00;64137.63;5050137;28;20219;-55
2023/05/06 04:45:47;;;;;;;10.43;8.20;;;;;;;11.45;99.45;64151.63;5050181;28;20185;-57
2023/05/06 04:48:23;;;;;;;12.23;8.43;;;;;;;11.37;99.45;64142.88;5050050;28;20213;-56
2023/05/06 04:50:49;;;;;;;11.47;7.80;;;;;;;11.49;99.39;64153.50;5050111;28;20182;-56
2023/05/06 04:53:22;;;;;;;11.23;7.90;;;;;;;11.79;97.43;64183.31;5049890;28;20220;-56
2023/05/06 04:55:47;;;;;;;15.27;11.73;;;;;;;11.53;97.72;64157.34;5050187;28;20193;-58
2023/05/06 04:58:13;;;;;;;12.17;9.40;;;;;;;11.53;97.90;64157.88;5050004;28;20646;-57
2023/05/06 05:00:39;;;;;;;12.10;8.13;;;;;;;11.70;97.76;64175.97;5032084;28;20618;-58
2023/05/06 05:03:04;;;;;;;15.27;10.03;;;;;;;11.62;97.15;64170.28;5049766;28;20232;-57
2023/05/06 05:05:35;;;;;;;10.40;8.10;;;;;;;11.49;98.37;64155.47;5050087;28;20304;-57
2023/05/06 05:08:00;;;;;;;12.60;8.33;;;;;;;11.84;97.06;64190.78;5031800;28;20209;-56
2023/05/06 05:10:26;;;;;;;13.40;9.57;;;;;;;11.91;97.17;64200.97;5049890;28;20190;-58
2023/05/06 05:12:51;;;;;;;14.70;9.83;;;;;;;11.81;96.48;64188.03;5049686;28;20177;-59
2023/05/06 05:15:17;;;;;;;13.97;9.43;;;;;;;11.80;96.76;64186.94;5049890;28;20190;-59
2023/05/06 05:17:43;;;;;;;18.27;10.53;;;;;;;11.73;97.07;64184.31;5049765;28;20184;-58
2023/05/06 05:20:09;;;;;;;12.43;8.10;;;;;;;12.09;94.93;64218.19;5049786;28;20181;-57
2023/05/06 05:22:35;;;;;;;11.17;7.40;;;;;;;12.11;93.41;64222.91;5049518;28;20189;-59
2023/05/06 05:25:00;;;;;;;12.60;8.67;;;;;;;11.80;96.43;64187.50;5049790;28;20205;-58
2023/05/06 05:27:26;;;;;;;11.93;8.57;;;;;;;11.72;97.25;64178.16;5049783;28;20246;-59
2023/05/06 05:29:51;;;;;;;11.03;8.40;;;;;;;11.71;97.23;64180.16;5049728;28;20699;-60
2023/05/06 05:32:17;;;;;;;13.00;8.30;;;;;;;11.86;96.24;64192.97;5049558;28;20194;-59
2023/05/06 05:34:42;;;;;;;10.97;8.30;;;;;;;12.14;96.45;64226.72;5049595;28;20706;-59
2023/05/06 05:37:07;;;;;;;14.93;10.17;;;;;;;12.05;97.04;64214.34;5049423;28;20189;-56
2023/05/06 05:39:33;;;;;;;16.63;12.10;;;;;;;12.09;97.06;64221.25;5049281;28;20206;-56
2023/05/06 05:41:58;;;;;;;16.53;11.17;;;;;;;12.07;96.57;64221.59;5049579;28;20639;-56
2023/05/06 05:44:24;;;;;;;14.37;11.10;;;;;;;12.09;96.56;64218.19;5049375;28;20311;-58
2023/05/06 05:46:49;;;;;;;12.13;9.87;;;;;;;12.17;95.98;64229.47;5049952;28;20597;-58
2023/05/06 05:49:15;;;;;;;16.47;8.43;;;;;;;12.05;95.68;64213.78;5052950;28;20274;-58
2023/05/06 05:51:41;;;;;;;13.50;9.33;;;;;;;12.17;95.55;64229.47;5052650;28;20660;-58
2023/05/06 05:54:06;;;;;;;12.97;8.33;;;;;;;12.01;96.32;64209.41;5053038;28;20231;-59
2023/05/06 05:56:32;;;;;;;13.37;7.70;;;;;;;12.14;96.12;64223.66;5052884;28;20190;-58
2023/05/06 05:58:57;;;;;;;11.83;8.53;;;;;;;12.34;96.55;64246.13;5052490;28;20621;-59
2023/05/06 06:01:22;;;;;;;13.10;8.00;;;;;;;12.47;96.59;64259.84;5052596;28;20186;-58
2023/05/06 06:03:48;;;;;;;13.00;8.30;;;;;;;12.50;96.12;64266.19;5052662;28;20568;-58
2023/05/06 06:06:13;;;;;;;10.63;8.53;;;;;;;12.65;93.17;64277.59;5052739;28;20563;-59
2023/05/06 06:08:39;;;;;;;11.77;8.10;;;;;;;12.83;92.29;64298.78;5052890;28;20250;-59
2023/05/06 06:11:05;;;;;;;10.60;7.50;;;;;;;12.72;92.85;64289.25;5034720;28;20552;-58
2023/05/06 06:13:30;;;;;;;11.37;8.47;;;;;;;12.76;92.55;64293.63;5034737;28;20202;-58
2023/05/06 06:15:56;;;;;;;13.50;8.17;;;;;;;13.04;90.48;64324.38;5052315;28;20340;-59
2023/05/06 06:18:22;;;;;;;12.50;8.53;;;;;;;13.18;91.40;64337.22;5052399;28;20225;-58
2023/05/06 06:20:48;;;;;;;10.23;7.90;;;;;;;13.09;92.55;64327.88;5052453;28;20185;-59
2023/05/06 06:23:14;;;;;;;11.70;8.00;;;;;;;13.17;91.71;64334.13;5052351;28;20224;-58
2023/05/06 06:25:39;;;;;;;18.17;9.60;;;;;;;12.90;93.35;64307.03;5052459;28;20226;-58
2023/05/06 06:28:05;;;;;;;9.67;8.07;;;;;;;13.06;92.98;64329.66;5052061;28;20213;-59
2023/05/06 06:30:30;;;;;;;10.47;8.07;;;;;;;13.15;91.60;64333.94;5052457;28;20208;-57
2023/05/06 06:32:57;;;;;;;17.83;12.73;;;;;;;13.23;91.93;64345.78;5034114;28;20224;-58
2023/05/06 06:35:23;;;;;;;18.67;11.63;;;;;;;13.24;92.80;64343.78;5052322;28;20269;-59
2023/05/06 06:37:48;;;;;;;15.33;9.20;;;;;;;13.28;92.51;64350.72;5051977;28;20747;-59
2023/05/06 06:40:14;;;;;;;15.60;9.90;;;;;;;13.39;92.06;64360.81;5051942;28;20190;-59
2023/05/06 06:42:39;;;;;;;15.87;9.97;;;;;;;13.60;91.12;64385.84;5051910;28;20546;-60
2023/05/06 06:45:07;;;;;;;13.40;9.93;;;;;;;13.64;91.73;64387.16;5052132;28;20182;-60
2023/05/06 06:47:33;;;;;;;16.53;10.97;;;;;;;13.69;92.00;64392.66;5051977;28;20186;-58
2023/05/06 06:49:58;;;;;;;22.43;12.00;;;;;;;13.67;93.35;64391.00;5051770;28;20287;-58
2023/05/06 06:52:24;;;;;;;16.70;10.23;;;;;;;13.64;91.78;64387.16;5051931;28;20261;-60
2023/05/06 06:54:49;;;;;;;17.10;11.00;;;;;;;13.60;91.47;64385.28;5052146;28;20752;-59
2023/05/06 06:57:15;;;;;;;18.40;11.48;;;;;;;13.76;90.63;64400.88;5051741;28;20247;-59
2023/05/06 06:59:40;;;;;;;16.17;10.82;;;;;;;13.93;90.72;64416.47;5050872;28;20209;-58
2023/05/06 07:02:06;;;;;;;14.90;10.35;;;;;;;13.75;89.13;64399.22;5051843;28;20575;-59
2023/05/06 07:04:31;;;;;;;16.10;11.33;;;;;;;13.92;87.68;64417.88;5051925;28;20600;-58
2023/05/06 07:06:57;;;;;;;11.85;10.20;;;;;;;13.98;86.09;64424.47;5051627;28;20561;-59
2023/05/06 07:09:22;;;;;;;18.00;11.73;;;;;;;14.01;85.59;64430.31;5051603;28;20232;-59
2023/05/06 07:11:48;;;;;;;14.47;10.50;;;;;;;14.30;84.32;64457.13;5051910;28;20564;-59
2023/05/06 07:14:13;;;;;;;19.10;10.77;;;;;;;14.36;84.24;64466.25;5051490;28;20695;-58
2023/05/06 07:16:39;;;;;;;15.95;11.43;;;;;;;14.65;83.59;64498.13;5051516;28;20251;-58
2023/05/06 07:19:04;;;;;;;18.33;11.87;;;;;;;14.82;83.91;64511.19;5051917;28;20309;-55
2023/05/06 07:21:33;;;;;;;17.67;11.55;;;;;;;14.86;82.75;64521.22;5051476;28;20288;-57
2023/05/06 07:23:58;;;;;;;20.25;11.25;;;;;;;15.03;80.53;64539.88;5051625;28;20213;-56
2023/05/06 07:26:25;;;;;;;19.40;11.63;;;;;;;14.89;80.42;64523.94;5051306;28;20196;-58
2023/05/06 07:28:50;;;;;;;15.55;10.73;;;;;;;14.96;79.86;64532.19;5051213;28;20218;-55
2023/05/06 07:31:19;;;;;;;18.92;11.57;;;;;;;15.29;80.35;64567.38;5051258;28;20675;-56
2023/05/06 07:33:48;;;;;;;15.63;10.48;;;;;;;15.48;79.04;64585.75;5051334;28;20213;-56
2023/05/06 07:36:13;;;;;;;14.23;10.05;;;;;;;15.62;78.48;64601.16;5051298;28;20197;-56
2023/05/06 07:38:39;;;;;;;15.55;9.82;;;;;;;15.58;77.59;64597.31;5051374;28;20586;-57
2023/05/06 07:41:05;;;;;;;13.57;9.90;;;;;;;15.47;76.41;64584.66;5051204;28;20297;-56
2023/05/06 07:43:30;;;;;;;10.32;8.38;;;;;;;15.20;76.76;64555.50;5051009;28;20671;-57
2023/05/06 07:46:01;;;;;;;13.10;8.27;;;;;;;15.60;75.73;64602.03;5050908;28;20209;-56
2023/05/06 07:48:30;;;;;;;11.27;8.45;;;;;;;15.84;75.47;64628.44;5050942;28;20279;-62
2023/05/06 07:50:56;;;;;;;14.25;8.65;;;;;;;15.81;75.61;64622.06;5033002;28;20244;-57
2023/05/06 07:53:22;;;;;;;17.23;9.40;;;;;;;15.80;75.84;64620.94;5051024;28;20232;-56
2023/05/06 07:55:48;;;;;;;10.93;8.30;;;;;;;15.92;73.68;64634.16;5050963;28;20174;-57
2023/05/06 07:58:13;;;;;;;10.45;7.78;;;;;;;16.36;71.30;64682.03;5050622;28;20215;-59
2023/05/06 08:00:39;;;;;;;10.93;8.05;;;;;;;16.44;72.33;64693.94;5050914;28;20185;-59
2023/05/06 08:03:04;;;;;;;8.43;6.93;;;;;;;16.20;72.15;64664.97;5050746;28;20209;-58
2023/05/06 08:05:29;;;;;;;12.48;8.00;;;;;;;16.20;72.40;64664.97;5050736;28;20244;-59
2023/05/06 08:07:55;;;;;;;10.57;7.60;;;;;;;16.51;71.85;64701.66;5050618;28;20196;-59
2023/05/06 08:10:21;;;;;;;16.45;13.25;;;;;;;16.42;72.85;64691.19;5049742;28;20755;-59
2023/05/06 08:12:47;;;;;;;8.68;6.55;;;;;;;16.58;71.00;64709.34;5050302;28;20232;-59
2023/05/06 08:15:13;;;;;;;9.20;6.53;;;;;;;16.67;71.62;64716.19;5050578;28;20189;-59
2023/05/06 08:17:39;;;;;;;13.25;7.38;;;;;;;16.86;70.32;64736.56;5051160;28;20185;-58
2023/05/06 08:20:06;;;;;;;12.73;6.50;;;;;;;17.30;68.58;64788.13;5051060;28;20691;-58
2023/05/06 08:22:31;;;;;;;10.43;6.38;;;;;;;17.65;66.82;64826.16;5051215;28;20185;-59
2023/05/06 08:24:56;;;;;;;6.00;5.40;;;;;;;17.01;64.78;64755.63;5051224;28;20632;-59
2023/05/06 08:27:22;;;;;;;12.13;8.75;;;;;;;16.75;66.60;64727.53;5050901;28;20193;-59
2023/05/06 08:29:48;;;;;;;8.02;7.22;;;;;;;16.61;69.85;64712.13;5051321;28;20703;-56
2023/05/06 08:32:13;;;;;;;9.40;6.88;;;;;;;16.92;69.32;64743.16;5051043;28;20193;-55
2023/05/06 08:34:38;;;;;;;7.18;5.30;;;;;;;17.31;67.21;64791.75;5051196;28;20258;-59
2023/05/06 08:37:04;;;;;;;11.48;7.68;;;;;;;17.08;69.26;64763.34;5050934;28;20209;-58
2023/05/06 08:39:30;;;;;;;9.40;6.75;;;;;;;16.96;70.14;64748.13;5050854;28;20201;-56
2023/05/06 08:41:58;;;;;;;10.68;7.22;;;;;;;17.61;66.51;64819.22;5033264;28;20781;-57
2023/05/06 08:44:24;;;;;;;9.63;7.68;;;;;;;17.45;65.66;64802.09;5050751;28;20209;-56
2023/05/06 08:46:50;;;;;;;10.98;7.97;;;;;;;17.75;67.00;64839.75;5050750;28;20239;-55
2023/05/06 08:49:16;;;;;;;9.43;6.45;;;;;;;17.94;64.46;64855.03;5050895;28;20217;-61
2023/05/06 08:51:46;;;;;;;7.90;6.45;;;;;;;18.04;64.85;64866.59;5050636;28;20631;-58
2023/05/06 08:54:12;;;;;;;14.07;7.38;;;;;;;18.31;62.90;64896.38;5050798;28;20206;-58
2023/05/06 08:56:42;;;;;;;8.43;6.43;;;;;;;18.30;62.59;64894.72;5050727;28;20185;-57
2023/05/06 08:59:08;;;;;;;6.88;6.18;;;;;;;18.71;63.27;64939.97;5050743;28;20216;-58
2023/05/06 09:01:34;;;;;;;10.20;5.38;;;;;;;18.80;60.31;64949.91;5050524;28;20671;-58
2023/05/06 09:04:00;;;;;;;10.73;6.00;;;;;;;18.47;62.39;64913.50;5050591;28;20343;-61
2023/05/06 09:06:26;;;;;;;10.57;5.47;;;;;;;18.82;59.84;64951.56;5050556;28;20212;-58
2023/05/06 09:08:51;;;;;;;4.95;4.32;;;;;;;18.69;60.53;64937.19;5050607;28;20225;-57
2023/05/06 09:11:25;;;;;;;9.65;4.60;;;;;;;18.63;62.64;64933.13;5050409;28;20185;-57
2023/05/06 09:14:12;;;;;;;6.25;5.05;;;;;;;18.32;61.25;64896.94;5032451;28;20651;-56
2023/05/06 09:16:42;;;;;;;10.23;4.97;;;;;;;18.14;60.14;64875.06;5050523;28;20196;-60
2023/05/06 09:19:08;;;;;;;7.50;5.53;;;;;;;17.52;61.48;64809.84;5050520;28;20221;-58
2023/05/06 09:21:42;;;;;;;8.70;5.10;;;;;;;17.48;63.37;64802.88;5050589;28;20188;-57
2023/05/06 09:24:09;;;;;;;7.13;4.95;;;;;;;17.92;64.23;64853.38;5053570;28;20228;-58
2023/05/06 09:26:36;;;;;;;7.13;5.13;;;;;;;18.22;63.27;64885.91;5053886;28;20217;-59
2023/05/06 09:29:03;;;;;;;8.40;5.20;;;;;;;17.99;63.56;64861.09;5053533;28;20427;-56
2023/05/06 09:31:28;;;;;;;9.45;5.10;;;;;;;18.18;63.17;64882.03;5053629;28;20276;-61
2023/05/06 09:33:55;;;;;;;8.05;5.30;;;;;;;18.39;60.70;64905.22;5053816;28;20299;-55
2023/05/06 09:36:22;;;;;;;6.45;4.80;;;;;;;18.60;60.00;64930.41;5053547;28;20239;-55
2023/05/06 09:38:48;;;;;;;5.43;4.15;;;;;;;18.96;59.64;64970.13;5053695;28;20240;-56
2023/05/06 09:41:15;;;;;;;7.15;5.07;;;;;;;19.10;59.39;64979.91;5053655;28;20182;-58
2023/05/06 09:43:45;;;;;;;6.28;4.72;;;;;;;19.32;61.15;65006.72;5053696;28;20229;-56
2023/05/06 09:46:11;;;;;;;8.55;5.90;;;;;;;19.36;57.96;65008.06;5053573;28;20231;-57
2023/05/06 09:48:37;;;;;;;7.10;4.15;;;;;;;19.06;58.15;64978.59;5053207;28;20272;-56
2023/05/06 09:51:05;;;;;;;6.18;4.63;;;;;;;19.15;57.22;64987.97;5053351;28;20604;-56
2023/05/06 09:53:33;;;;;;;10.18;6.13;;;;;;;19.36;57.47;65011.16;5053402;28;20218;-57
2023/05/06 09:56:07;;;;;;;10.75;7.75;;;;;;;19.35;57.62;65009.53;5053156;28;20189;-58
2023/05/06 09:58:34;;;;;;;4.25;3.85;;;;;;;19.50;58.82;65026.63;5035334;28;20225;-59
2023/05/06 10:01:05;;;;;;;9.70;7.05;;;;;;;19.11;58.79;64981.00;5053480;28;20177;-58
2023/05/06 10:03:31;;;;;;;6.53;4.82;;;;;;;18.39;59.59;64904.66;5053591;28;20259;-57
2023/05/06 10:06:00;;;;;;;4.97;4.43;;;;;;;18.67;58.12;64938.09;5053276;28;20189;-59
2023/05/06 10:08:26;;;;;;;5.95;3.80;;;;;;;18.75;58.97;64943.81;5052918;28;20698;-59
2023/05/06 10:10:52;;;;;;;7.97;3.95;;;;;;;18.62;61.16;64932.03;5035296;28;20182;-57
2023/05/06 10:13:22;;;;;;;9.13;5.05;;;;;;;18.62;60.31;64932.59;5052954;28;20633;-58
2023/05/06 10:15:49;;;;;;;7.55;4.90;;;;;;;18.41;60.76;64907.41;5052930;28;20630;-57
2023/05/06 10:18:16;;;;;;;5.88;4.22;;;;;;;18.56;60.57;64923.44;5053176;28;20213;-59
2023/05/06 10:20:43;;;;;;;6.43;4.57;;;;;;;18.73;58.17;64941.63;5052985;28;20263;-56
2023/05/06 10:23:27;;;;;;;6.10;4.50;;;;;;;18.88;58.53;64958.72;5034914;28;20213;-59
2023/05/06 10:25:55;;;;;;;5.88;3.55;;;;;;;18.71;57.24;64939.41;5053041;28;20185;-56
2023/05/06 10:28:21;;;;;;;10.82;4.82;;;;;;;19.43;57.20;65015.78;5052734;28;20252;-56
2023/05/06 10:30:49;;;;;;;4.00;3.60;;;;;;;19.74;56.15;65053.13;5052733;28;20209;-55
2023/05/06 10:33:16;;;;;;;4.05;3.67;;;;;;;19.92;54.89;65072.44;5052048;28;20214;-59
2023/05/06 10:36:06;;;;;;;5.97;3.55;;;;;;;19.92;55.17;65072.44;5052150;28;20185;-59
2023/05/06 10:38:36;;;;;;;4.32;3.28;;;;;;;19.77;53.15;65053.91;5052681;28;20441;-59
2023/05/06 10:41:02;;;;;;;5.43;3.10;;;;;;;19.62;52.31;65036.75;5053035;28;20193;-59
2023/05/06 10:43:33;;;;;;;5.47;2.88;;;;;;;19.69;52.34;65047.63;5052743;28;20217;-59
2023/05/06 10:46:14;;;;;;;3.85;3.25;;;;;;;19.88;52.28;65068.03;5035124;28;20664;-60
2023/05/06 10:49:09;;;;;;;5.85;3.25;;;;;;;19.90;53.81;65070.25;5052092;28;20221;-59
2023/05/06 10:51:36;;;;;;;5.32;2.97;;;;;;;19.97;52.26;65075.97;5052496;28;20192;-59
2023/05/06 10:54:17;;;;;;;3.63;2.90;;;;;;;20.26;51.42;65110.03;5052484;28;20205;-58
2023/05/06 10:57:09;;;;;;;5.53;3.47;;;;;;;19.84;50.64;65064.16;5052546;28;20315;-58
2023/05/06 10:59:34;;;;;;;3.67;3.17;;;;;;;20.36;49.91;65120.53;5052208;28;20242;-58
2023/05/06 11:02:06;;;;;;;3.38;3.08;;;;;;;20.72;48.38;65157.75;5052244;28;20610;-58
2023/05/06 11:04:31;;;;;;;5.90;2.80;;;;;;;20.83;47.52;65169.91;5052556;28;20213;-59
2023/05/06 11:07:11;;;;;;;3.30;2.83;;;;;;;21.04;47.74;65195.16;5052240;28;20547;-58
2023/05/06 11:09:59;;;;;;;3.72;2.88;;;;;;;21.27;47.72;65220.59;5052357;28;20588;-57
2023/05/06 11:12:43;;;;;;;2.90;2.58;;;;;;;21.21;47.43;65214.50;5052370;28;20240;-58
2023/05/06 11:15:25;;;;;;;6.43;3.13;;;;;;;20.98;47.47;65189.06;5052138;28;20275;-57
2023/05/06 11:17:55;;;;;;;5.63;2.90;;;;;;;21.72;44.84;65268.34;5052213;28;20189;-59
2023/05/06 11:20:21;;;;;;;6.32;2.53;;;;;;;22.01;44.93;65301.91;5052437;28;20190;-58
2023/05/06 11:22:48;;;;;;;4.13;3.50;;;;;;;21.29;45.77;65220.78;5052096;28;20192;-58
2023/05/06 11:25:24;;;;;;;4.90;3.22;;;;;;;21.63;45.80;65260.94;5052046;28;20290;-57